createdAt,value
2017-09-01T00:01:03.783Z,99.96
2017-09-01T00:02:13.667Z,99.96
2017-09-01T00:03:23.946Z,99.77
2017-09-01T00:04:34.222Z,99.77
2017-09-01T00:05:44.488Z,99.96
2017-09-01T00:06:54.439Z,99.99
2017-09-01T00:08:04.658Z,99.99
2017-09-01T00:09:14.296Z,99.99
2017-09-01T00:10:24.296Z,99.99
2017-09-01T00:11:34.570Z,99.99
2017-09-01T00:12:44.845Z,99.99
2017-09-01T00:13:55.043Z,99.99
2017-09-01T00:15:05.349Z,99.99
2017-09-01T00:16:15.631Z,99.99
2017-09-01T00:17:25.909Z,99.99
2017-09-01T00:18:36.180Z,99.99
2017-09-01T00:19:46.704Z,99.99
2017-09-01T00:20:56.352Z,99.99
2017-09-01T00:22:06.312Z,99.99
2017-09-01T00:23:16.583Z,99.99
2017-09-01T00:24:26.548Z,99.99
2017-09-01T00:25:37.095Z,99.99
2017-09-01T00:26:47.380Z,99.99
2017-09-01T00:27:57.649Z,99.99
2017-09-01T00:29:07.710Z,99.99
2017-09-01T00:30:17.657Z,99.99
2017-09-01T00:31:28.195Z,99.99
2017-09-01T00:32:38.464Z,99.99
2017-09-01T00:33:48.426Z,99.99
2017-09-01T00:34:58.696Z,99.62
2017-09-01T00:36:08.663Z,99.99
2017-09-01T00:37:19.213Z,99.72
2017-09-01T00:38:29.189Z,99.62
2017-09-01T00:39:39.476Z,99.81
2017-09-01T00:40:49.761Z,99.81
2017-09-01T00:42:00.039Z,99.99
2017-09-01T00:43:10.304Z,99.99
2017-09-01T00:44:20.577Z,99.99
2017-09-01T00:45:30.866Z,99.99
2017-09-01T00:46:40.504Z,99.99
2017-09-01T00:47:50.152Z,99.99
2017-09-01T00:49:00.677Z,99.99
2017-09-01T00:50:10.942Z,99.99
2017-09-01T00:51:20.893Z,99.99
2017-09-01T00:52:31.174Z,99.99
2017-09-01T00:53:41.455Z,99.99
2017-09-01T00:54:51.660Z,99.99
2017-09-01T00:56:01.611Z,99.99
2017-09-01T00:57:11.555Z,99.99
2017-09-01T00:58:21.835Z,99.99
2017-09-01T00:59:32.112Z,99.99
2017-09-01T01:00:42.002Z,99.99
2017-09-01T01:01:52.296Z,99.99
2017-09-01T01:03:02.615Z,99.99
2017-09-01T01:04:12.901Z,99.99
2017-09-01T01:05:23.180Z,99.99
2017-09-01T01:06:33.710Z,99.99
2017-09-01T01:07:43.679Z,99.99
2017-09-01T01:08:53.638Z,99.99
2017-09-01T01:10:03.593Z,99.99
2017-09-01T01:11:13.570Z,99.99
2017-09-01T01:12:24.087Z,99.99
2017-09-01T01:13:34.052Z,99.99
2017-09-01T01:14:44.361Z,99.99
2017-09-01T01:15:54.644Z,99.99
2017-09-01T01:17:04.908Z,99.99
2017-09-01T01:18:15.124Z,99.99
2017-09-01T01:19:25.391Z,99.99
2017-09-01T01:20:35.680Z,99.99
2017-09-01T01:21:45.985Z,99.99
2017-09-01T01:22:56.265Z,99.99
2017-09-01T01:24:06.505Z,99.99
2017-09-01T01:25:16.786Z,99.99
2017-09-01T01:26:27.059Z,99.99
2017-09-01T01:27:37.350Z,99.99
2017-09-01T01:28:47.317Z,99.99
2017-09-01T01:29:57.849Z,99.99
2017-09-01T01:31:07.849Z,99.99
2017-09-01T01:32:18.111Z,99.99
2017-09-01T01:33:28.064Z,99.99
2017-09-01T01:34:38.337Z,99.99
2017-09-01T01:35:48.543Z,99.99
2017-09-01T01:36:58.813Z,99.99
2017-09-01T01:38:08.761Z,99.99
2017-09-01T01:39:19.036Z,99.99
2017-09-01T01:40:28.681Z,99.99
2017-09-01T01:41:39.217Z,99.99
2017-09-01T01:42:49.486Z,99.99
2017-09-01T01:43:59.761Z,99.99
2017-09-01T01:45:09.728Z,99.99
2017-09-01T01:46:20.013Z,99.99
2017-09-01T01:47:30.557Z,99.99
2017-09-01T01:48:40.510Z,99.99
2017-09-01T01:49:50.795Z,99.99
2017-09-01T01:51:01.069Z,99.99
2017-09-01T01:52:11.336Z,99.99
2017-09-01T01:53:21.877Z,99.99
2017-09-01T01:54:32.176Z,99.99
2017-09-01T01:55:42.123Z,99.99
2017-09-01T01:56:52.085Z,99.99
2017-09-01T01:58:02.363Z,99.99
2017-09-01T01:59:12.869Z,99.99
2017-09-01T02:00:22.518Z,99.99
2017-09-01T02:01:32.792Z,99.99
2017-09-01T02:02:43.073Z,99.99
2017-09-01T02:03:52.712Z,99.99
2017-09-01T02:05:03.241Z,99.99
2017-09-01T02:06:13.525Z,99.99
2017-09-01T02:07:23.495Z,99.99
2017-09-01T02:08:33.780Z,99.99
2017-09-01T02:09:44.066Z,99.99
2017-09-01T02:10:54.583Z,99.99
2017-09-01T02:12:04.854Z,99.99
2017-09-01T02:13:14.816Z,99.99
2017-09-01T02:14:25.069Z,99.99
2017-09-01T02:15:35.037Z,99.99
2017-09-01T02:16:45.573Z,99.99
2017-09-01T02:17:55.537Z,99.99
2017-09-01T02:19:05.798Z,99.99
2017-09-01T02:20:16.082Z,99.99
2017-09-01T02:21:26.369Z,99.99
2017-09-01T02:22:36.888Z,99.99
2017-09-01T02:23:47.169Z,99.99
2017-09-01T02:24:57.455Z,99.99
2017-09-01T02:26:07.729Z,99.99
2017-09-01T02:27:17.689Z,99.99
2017-09-01T02:28:27.902Z,99.99
2017-09-01T02:29:38.167Z,99.99
2017-09-01T02:30:48.123Z,99.99
2017-09-01T02:31:58.413Z,99.99
2017-09-01T02:33:08.695Z,99.99
2017-09-01T02:34:19.235Z,99.99
2017-09-01T02:35:29.513Z,99.99
2017-09-01T02:36:39.482Z,99.99
2017-09-01T02:37:49.744Z,99.99
2017-09-01T02:39:00.034Z,99.99
2017-09-01T02:40:10.550Z,99.99
2017-09-01T02:41:20.826Z,99.99
2017-09-01T02:42:30.776Z,99.99
2017-09-01T02:43:41.068Z,99.99
2017-09-01T02:44:51.332Z,99.99
2017-09-01T02:46:01.842Z,99.99
2017-09-01T02:47:11.796Z,99.99
2017-09-01T02:48:21.752Z,99.99
2017-09-01T02:49:32.044Z,99.99
2017-09-01T02:50:42.331Z,99.99
2017-09-01T02:51:52.859Z,99.99
2017-09-01T02:53:03.163Z,99.99
2017-09-01T02:54:13.423Z,99.99
2017-09-01T02:55:23.395Z,99.99
2017-09-01T02:56:33.684Z,99.99
2017-09-01T02:57:44.210Z,99.99
2017-09-01T02:58:54.475Z,99.99
2017-09-01T03:00:04.743Z,99.99
2017-09-01T03:01:15.014Z,99.99
2017-09-01T03:02:24.660Z,99.99
2017-09-01T03:03:35.204Z,99.99
2017-09-01T03:04:45.150Z,99.99
2017-09-01T03:05:55.098Z,99.99
2017-09-01T03:07:05.375Z,99.99
2017-09-01T03:08:15.333Z,99.99
2017-09-01T03:09:25.856Z,99.99
2017-09-01T03:10:35.840Z,99.99
2017-09-01T03:11:46.119Z,99.99
2017-09-01T03:12:56.391Z,99.99
2017-09-01T03:14:06.359Z,99.99
2017-09-01T03:15:16.880Z,99.99
2017-09-01T03:16:26.853Z,99.99
2017-09-01T03:17:36.817Z,99.99
2017-09-01T03:18:47.102Z,99.99
2017-09-01T03:19:57.054Z,99.99
2017-09-01T03:21:07.268Z,99.99
2017-09-01T03:22:17.270Z,99.99
2017-09-01T03:23:26.920Z,99.99
2017-09-01T03:24:37.298Z,99.99
2017-09-01T03:25:47.570Z,99.99
2017-09-01T03:26:57.830Z,99.99
2017-09-01T03:28:07.783Z,99.99
2017-09-01T03:29:18.065Z,99.99
2017-09-01T03:30:27.709Z,99.99
2017-09-01T03:31:37.378Z,99.99
2017-09-01T03:32:47.630Z,99.99
2017-09-01T03:33:57.600Z,99.99
2017-09-01T03:35:07.546Z,99.99
2017-09-01T03:36:17.818Z,99.99
2017-09-01T03:37:28.102Z,99.99
2017-09-01T03:38:38.621Z,99.99
2017-09-01T03:39:48.913Z,99.99
2017-09-01T03:40:59.180Z,99.99
2017-09-01T03:42:09.449Z,99.99
2017-09-01T03:43:19.734Z,99.99
2017-09-01T03:44:29.330Z,99.99
2017-09-01T03:45:39.287Z,99.99
2017-09-01T03:46:49.250Z,99.99
2017-09-01T03:47:59.524Z,99.99
2017-09-01T03:49:09.799Z,99.99
2017-09-01T03:50:19.728Z,99.99
2017-09-01T03:51:29.688Z,99.99
2017-09-01T03:52:39.964Z,99.99
2017-09-01T03:53:50.264Z,99.99
2017-09-01T03:55:00.016Z,99.99
2017-09-01T03:56:10.229Z,99.99
2017-09-01T03:57:20.509Z,99.99
2017-09-01T03:58:30.450Z,99.99
2017-09-01T03:59:40.730Z,99.99
2017-09-01T04:00:50.997Z,99.99
2017-09-01T04:02:01.529Z,99.99
2017-09-01T04:03:11.793Z,99.99
2017-09-01T04:04:21.748Z,99.99
2017-09-01T04:05:32.055Z,99.99
2017-09-01T04:06:42.327Z,99.99
2017-09-01T04:07:52.859Z,99.99
2017-09-01T04:09:03.150Z,99.99
2017-09-01T04:10:13.105Z,99.99
2017-09-01T04:11:23.070Z,99.99
2017-09-01T04:12:33.340Z,99.99
2017-09-01T04:13:43.892Z,99.99
2017-09-01T04:14:54.167Z,99.99
2017-09-01T04:16:04.122Z,99.99
2017-09-01T04:17:14.062Z,99.99
2017-09-01T04:18:24.017Z,99.99
2017-09-01T04:19:34.225Z,99.99
2017-09-01T04:20:44.494Z,99.99
2017-09-01T04:21:54.764Z,99.99
2017-09-01T04:23:04.715Z,99.99
2017-09-01T04:24:14.673Z,99.99
2017-09-01T04:25:24.932Z,99.99
2017-09-01T04:26:35.216Z,99.99
2017-09-01T04:27:45.165Z,99.99
2017-09-01T04:28:55.126Z,99.99
2017-09-01T04:30:05.096Z,99.99
2017-09-01T04:31:15.319Z,99.99
2017-09-01T04:32:25.592Z,99.99
2017-09-01T04:33:35.540Z,99.99
2017-09-01T04:34:45.521Z,99.99
2017-09-01T04:35:55.490Z,99.99
2017-09-01T04:37:06.025Z,99.99
2017-09-01T04:38:16.302Z,99.99
2017-09-01T04:39:26.266Z,99.99
2017-09-01T04:40:36.538Z,99.99
2017-09-01T04:41:46.804Z,99.99
2017-09-01T04:42:56.997Z,99.99
2017-09-01T04:44:06.327Z,99.99
2017-09-01T04:45:16.308Z,99.99
2017-09-01T04:46:26.583Z,99.99
2017-09-01T04:47:36.839Z,99.99
2017-09-01T04:48:46.729Z,99.99
2017-09-01T04:49:56.693Z,99.99
2017-09-01T04:51:06.972Z,99.99
2017-09-01T04:52:16.932Z,99.99
2017-09-01T04:53:26.907Z,99.99
2017-09-01T04:54:37.454Z,99.99
2017-09-01T04:55:47.418Z,99.99
2017-09-01T04:56:57.691Z,99.99
2017-09-01T04:58:07.997Z,99.99
2017-09-01T04:59:17.943Z,99.99
2017-09-01T05:00:28.168Z,99.99
2017-09-01T05:01:38.136Z,99.99
2017-09-01T05:02:48.106Z,99.99
2017-09-01T05:03:58.079Z,99.99
2017-09-01T05:05:08.030Z,99.99
2017-09-01T05:06:18.555Z,99.99
2017-09-01T05:07:28.825Z,99.99
2017-09-01T05:08:39.080Z,99.99
2017-09-01T05:09:49.356Z,99.99
2017-09-01T05:10:59.628Z,99.99
2017-09-01T05:12:09.524Z,99.99
2017-09-01T05:13:19.179Z,99.99
2017-09-01T05:14:29.441Z,99.99
2017-09-01T05:15:39.729Z,99.99
2017-09-01T05:16:50.009Z,99.99
2017-09-01T05:18:00.538Z,99.99
2017-09-01T05:19:10.831Z,99.99
2017-09-01T05:20:20.781Z,99.99
2017-09-01T05:21:31.052Z,99.99
2017-09-01T05:22:41.333Z,99.99
2017-09-01T05:23:51.578Z,99.99
2017-09-01T05:25:01.870Z,99.99
2017-09-01T05:26:12.163Z,99.99
2017-09-01T05:27:21.811Z,99.99
2017-09-01T05:28:31.781Z,99.99
2017-09-01T05:29:41.981Z,99.99
2017-09-01T05:30:51.950Z,99.99
2017-09-01T05:32:02.232Z,99.99
2017-09-01T05:33:11.872Z,99.99
2017-09-01T05:34:22.157Z,99.99
2017-09-01T05:35:32.048Z,99.99
2017-09-01T05:36:42.011Z,99.99
2017-09-01T05:37:51.962Z,99.99
2017-09-01T05:39:02.245Z,99.99
2017-09-01T05:40:12.528Z,99.99
2017-09-01T05:41:23.079Z,99.99
2017-09-01T05:42:33.362Z,99.99
2017-09-01T05:43:43.635Z,99.99
2017-09-01T05:44:53.592Z,99.99
2017-09-01T05:46:03.546Z,99.99
2017-09-01T05:47:14.130Z,99.99
2017-09-01T05:48:24.427Z,99.99
2017-09-01T05:49:34.381Z,99.99
2017-09-01T05:50:44.668Z,99.99
2017-09-01T05:51:54.942Z,99.99
2017-09-01T05:53:05.153Z,99.99
2017-09-01T05:54:15.439Z,99.99
2017-09-01T05:55:25.724Z,99.99
2017-09-01T05:56:36.031Z,99.99
2017-09-01T05:57:45.692Z,99.99
2017-09-01T05:58:56.223Z,99.99
2017-09-01T06:00:06.504Z,99.99
2017-09-01T06:01:16.795Z,99.99
2017-09-01T06:02:27.076Z,99.99
2017-09-01T06:03:37.362Z,99.99
2017-09-01T06:04:47.903Z,99.99
2017-09-01T06:05:58.196Z,99.99
2017-09-01T06:07:08.482Z,99.99
2017-09-01T06:08:18.782Z,99.99
2017-09-01T06:09:29.079Z,99.99
2017-09-01T06:10:39.603Z,99.99
2017-09-01T06:11:49.902Z,99.99
2017-09-01T06:12:59.864Z,99.99
2017-09-01T06:14:09.840Z,99.99
2017-09-01T06:15:20.113Z,99.99
2017-09-01T06:16:30.628Z,99.99
2017-09-01T06:17:40.592Z,99.99
2017-09-01T06:18:50.870Z,99.99
2017-09-01T06:20:00.832Z,99.99
2017-09-01T06:21:11.163Z,99.99
2017-09-01T06:22:21.663Z,99.99
2017-09-01T06:23:31.623Z,99.99
2017-09-01T06:24:41.919Z,99.99
2017-09-01T06:25:51.565Z,99.99
2017-09-01T06:27:01.852Z,99.99
2017-09-01T06:28:12.053Z,99.99
2017-09-01T06:29:22.332Z,99.99
2017-09-01T06:30:32.635Z,99.99
2017-09-01T06:31:43.036Z,99.99
2017-09-01T06:32:53.079Z,99.99
2017-09-01T06:34:03.004Z,99.99
2017-09-01T06:35:13.273Z,99.99
2017-09-01T06:36:23.606Z,99.99
2017-09-01T06:37:33.261Z,99.99
2017-09-01T06:38:42.925Z,99.99
2017-09-01T06:39:53.172Z,99.99
2017-09-01T06:41:03.477Z,99.99
2017-09-01T06:42:13.771Z,99.99
2017-09-01T06:43:23.751Z,99.99
2017-09-01T06:44:34.072Z,99.99
2017-09-01T06:45:44.310Z,99.99
2017-09-01T06:46:54.591Z,99.99
2017-09-01T06:48:04.571Z,99.99
2017-09-01T06:49:14.854Z,99.81
2017-09-01T06:50:25.097Z,99.05
2017-09-01T06:51:35.645Z,98.95
2017-09-01T06:52:45.639Z,98.95
2017-09-01T06:53:55.930Z,98.86
2017-09-01T06:55:06.197Z,99.52
2017-09-01T06:56:16.371Z,98.86
2017-09-01T06:57:26.908Z,99.15
2017-09-01T06:58:38.022Z,98.95
2017-09-01T06:59:48.127Z,99.72
2017-09-01T07:00:58.409Z,98.95
2017-09-01T07:02:08.400Z,98
2017-09-01T07:03:18.629Z,98.28
2017-09-01T07:04:28.592Z,98
2017-09-01T07:05:38.229Z,98
2017-09-01T07:06:48.509Z,98.57
2017-09-01T07:07:58.778Z,98.28
2017-09-01T07:09:08.659Z,98
2017-09-01T07:10:18.933Z,97.8
2017-09-01T07:11:29.216Z,98.28
2017-09-01T07:12:39.499Z,98.28
2017-09-01T07:13:49.994Z,98.28
2017-09-01T07:15:00.341Z,98.57
2017-09-01T07:16:10.637Z,97.8
2017-09-01T07:17:21.146Z,97.13
2017-09-01T07:18:31.644Z,97.61
2017-09-01T07:19:41.922Z,98.19
2017-09-01T07:20:52.151Z,96.75
2017-09-01T07:22:02.423Z,97.28
2017-09-01T07:23:12.698Z,97.71
2017-09-01T07:24:22.976Z,96.8
2017-09-01T07:25:33.275Z,95.75
2017-09-01T07:26:43.203Z,95.56
2017-09-01T07:27:52.525Z,95.46
2017-09-01T07:29:02.821Z,95.56
2017-09-01T07:30:12.781Z,96.13
2017-09-01T07:31:23.091Z,95.46
2017-09-01T07:32:33.614Z,95.65
2017-09-01T07:33:43.891Z,94.79
2017-09-01T07:34:54.157Z,94.5
2017-09-01T07:36:04.441Z,93.98
2017-09-01T07:37:14.723Z,94.17
2017-09-01T07:38:24.946Z,94.35
2017-09-01T07:39:34.586Z,93.4
2017-09-01T07:40:44.876Z,93.59
2017-09-01T07:41:54.890Z,91.43
2017-09-01T07:43:05.177Z,91.05
2017-09-01T07:44:15.703Z,91.05
2017-09-01T07:45:26.005Z,90.95
2017-09-01T07:46:36.315Z,90.09
2017-09-01T07:47:46.590Z,90.28
2017-09-01T07:48:56.890Z,90.38
2017-09-01T07:50:07.416Z,90.28
2017-09-01T07:51:17.381Z,90.86
2017-09-01T07:52:27.351Z,90.86
2017-09-01T07:53:37.635Z,90.47
2017-09-01T07:54:47.920Z,89.9
2017-09-01T07:55:58.461Z,90
2017-09-01T07:57:08.447Z,90.38
2017-09-01T07:58:18.743Z,91.05
2017-09-01T07:59:28.716Z,89.18
2017-09-01T08:00:38.711Z,89.08
2017-09-01T08:01:49.236Z,88.31
2017-09-01T08:02:58.561Z,87.78
2017-09-01T08:04:08.524Z,88.35
2017-09-01T08:05:18.243Z,87.4
2017-09-01T08:06:28.555Z,86.54
2017-09-01T08:07:39.075Z,85.86
2017-09-01T08:08:49.042Z,85.52
2017-09-01T08:09:59.021Z,85.14
2017-09-01T08:11:09.000Z,86
2017-09-01T08:12:18.967Z,86.25
2017-09-01T08:13:29.529Z,85.04
2017-09-01T08:14:39.807Z,85.04
2017-09-01T08:15:50.083Z,85.33
2017-09-01T08:17:00.053Z,83.07
2017-09-01T08:18:10.358Z,81.72
2017-09-01T08:19:20.950Z,81.15
2017-09-01T08:20:31.226Z,81.53
2017-09-01T08:21:41.485Z,81.34
2017-09-01T08:22:51.772Z,81.24
2017-09-01T08:24:02.074Z,81.34
2017-09-01T08:25:12.618Z,81.15
2017-09-01T08:26:22.913Z,79.9
2017-09-01T08:27:32.935Z,79.55
2017-09-01T08:28:42.925Z,79.36
2017-09-01T08:29:53.203Z,79.69
2017-09-01T08:31:03.106Z,78.92
2017-09-01T08:32:13.406Z,79.4
2017-09-01T08:33:23.412Z,78.58
2017-09-01T08:34:33.705Z,76.94
2017-09-01T08:35:43.694Z,77.04
2017-09-01T08:36:53.904Z,76.65
2017-09-01T08:38:04.218Z,76.5
2017-09-01T08:39:14.505Z,76.01
2017-09-01T08:40:24.475Z,75.92
2017-09-01T08:41:34.463Z,75.73
2017-09-01T08:42:45.012Z,75.69
2017-09-01T08:43:55.004Z,75.05
2017-09-01T08:45:05.291Z,76.46
2017-09-01T08:46:15.585Z,75.49
2017-09-01T08:47:25.860Z,74.96
2017-09-01T08:48:36.403Z,75.4
2017-09-01T08:49:46.698Z,75.4
2017-09-01T08:50:57.005Z,76.98
2017-09-01T08:52:06.982Z,74.38
2017-09-01T08:53:17.267Z,72.68
2017-09-01T08:54:27.804Z,72.05
2017-09-01T08:55:37.782Z,70.6
2017-09-01T08:56:47.779Z,70.12
2017-09-01T08:57:58.089Z,68.32
2017-09-01T08:59:08.053Z,68.9
2017-09-01T09:00:18.604Z,69.23
2017-09-01T09:01:28.566Z,67.58
2017-09-01T09:02:38.547Z,67.58
2017-09-01T09:03:48.581Z,67.71
2017-09-01T09:04:58.911Z,65.5
2017-09-01T09:06:09.444Z,64.28
2017-09-01T09:07:19.736Z,64.86
2017-09-01T09:08:29.714Z,65.5
2017-09-01T09:09:39.708Z,64.92
2017-09-01T09:10:49.994Z,64.72
2017-09-01T09:12:00.592Z,65.69
2017-09-01T09:13:10.898Z,64.34
2017-09-01T09:14:21.196Z,62.25
2017-09-01T09:15:31.501Z,61.77
2017-09-01T09:16:41.491Z,61.47
2017-09-01T09:17:51.729Z,62.41
2017-09-01T09:19:01.695Z,62.86
2017-09-01T09:20:11.676Z,63.34
2017-09-01T09:21:21.972Z,64.5
2017-09-01T09:22:32.262Z,64.98
2017-09-01T09:23:42.778Z,65.17
2017-09-01T09:24:53.070Z,66.04
2017-09-01T09:26:03.077Z,65.75
2017-09-01T09:27:13.053Z,65.66
2017-09-01T09:28:23.013Z,64.5
2017-09-01T09:29:33.564Z,64.4
2017-09-01T09:30:43.548Z,65.75
2017-09-01T09:31:53.207Z,65.27
2017-09-01T09:33:02.850Z,64.69
2017-09-01T09:34:12.832Z,64.43
2017-09-01T09:35:23.389Z,64.31
2017-09-01T09:36:33.685Z,64.5
2017-09-01T09:37:43.968Z,64.31
2017-09-01T09:38:54.516Z,65.75
2017-09-01T09:40:04.803Z,65.37
2017-09-01T09:41:15.365Z,60.93
2017-09-01T09:42:25.348Z,61.71
2017-09-01T09:43:34.989Z,64.08
2017-09-01T09:44:45.285Z,64.95
2017-09-01T09:45:55.574Z,63.31
2017-09-01T09:47:06.122Z,61.41
2017-09-01T09:48:16.091Z,62.45
2017-09-01T09:49:26.387Z,62.06
2017-09-01T09:50:36.349Z,62.63
2017-09-01T09:51:46.635Z,64.15
2017-09-01T09:52:56.862Z,64.05
2017-09-01T09:54:07.168Z,64.43
2017-09-01T09:55:17.132Z,64.4
2017-09-01T09:56:27.428Z,64.21
2017-09-01T09:57:37.721Z,63.28
2017-09-01T09:58:47.940Z,64.34
2017-09-01T09:59:57.901Z,64.25
2017-09-01T10:01:07.892Z,63.5
2017-09-01T10:02:18.201Z,62.32
2017-09-01T10:03:28.508Z,61.19
2017-09-01T10:04:39.074Z,60.42
2017-09-01T10:05:49.075Z,61.93
2017-09-01T10:06:59.378Z,62.06
2017-09-01T10:08:09.704Z,61.48
2017-09-01T10:09:19.762Z,61.68
2017-09-01T10:10:29.708Z,62.15
2017-09-01T10:11:40.055Z,60.64
2017-09-01T10:12:50.419Z,59.32
2017-09-01T10:14:00.470Z,56.43
2017-09-01T10:15:10.123Z,57.1
2017-09-01T10:16:20.383Z,57.59
2017-09-01T10:17:30.066Z,57.29
2017-09-01T10:18:40.376Z,57.68
2017-09-01T10:19:50.354Z,58.65
2017-09-01T10:21:00.665Z,57.39
2017-09-01T10:22:10.898Z,56.91
2017-09-01T10:23:20.867Z,58.36
2017-09-01T10:24:31.157Z,57.94
2017-09-01T10:25:41.138Z,57.46
2017-09-01T10:26:51.426Z,58.23
2017-09-01T10:28:01.999Z,59.17
2017-09-01T10:29:12.309Z,58.59
2017-09-01T10:30:22.597Z,59.07
2017-09-01T10:31:32.894Z,58.49
2017-09-01T10:32:42.919Z,58.11
2017-09-01T10:33:53.469Z,58.4
2017-09-01T10:35:03.118Z,59.65
2017-09-01T10:36:13.412Z,59.07
2017-09-01T10:37:23.918Z,58.3
2017-09-01T10:38:34.430Z,58.78
2017-09-01T10:39:45.234Z,59.07
2017-09-01T10:40:55.187Z,57.43
2017-09-01T10:42:05.153Z,58.2
2017-09-01T10:43:15.409Z,57.62
2017-09-01T10:44:25.393Z,58.01
2017-09-01T10:45:35.645Z,57.92
2017-09-01T10:46:45.942Z,57.24
2017-09-01T10:47:56.219Z,56.95
2017-09-01T10:49:06.497Z,58.2
2017-09-01T10:50:16.157Z,58.11
2017-09-01T10:51:26.705Z,58.2
2017-09-01T10:52:36.998Z,58.49
2017-09-01T10:53:47.301Z,58.2
2017-09-01T10:54:57.585Z,58.59
2017-09-01T10:56:07.562Z,58.4
2017-09-01T10:57:18.091Z,58.4
2017-09-01T10:58:27.783Z,58.78
2017-09-01T10:59:38.068Z,58.3
2017-09-01T11:00:48.360Z,59.07
2017-09-01T11:01:58.644Z,59.07
2017-09-01T11:03:09.201Z,59.43
2017-09-01T11:04:19.532Z,59.62
2017-09-01T11:05:29.854Z,59.01
2017-09-01T11:06:40.138Z,59.3
2017-09-01T11:07:50.101Z,60.62
2017-09-01T11:09:00.650Z,61.19
2017-09-01T11:10:10.644Z,60.88
2017-09-01T11:11:20.977Z,61.36
2017-09-01T11:12:30.950Z,61.16
2017-09-01T11:13:41.251Z,61.26
2017-09-01T11:14:51.468Z,60.97
2017-09-01T11:16:01.752Z,61.07
2017-09-01T11:17:12.258Z,61.36
2017-09-01T11:18:22.541Z,61.84
2017-09-01T11:19:32.817Z,60.94
2017-09-01T11:20:42.951Z,62.96
2017-09-01T11:21:52.906Z,63.06
2017-09-01T11:23:03.210Z,64.09
2017-09-01T11:24:13.498Z,64.47
2017-09-01T11:25:23.126Z,63.89
2017-09-01T11:26:33.354Z,64.37
2017-09-01T11:27:43.324Z,65.08
2017-09-01T11:28:53.307Z,63.83
2017-09-01T11:30:03.277Z,63.22
2017-09-01T11:31:13.594Z,63.99
2017-09-01T11:32:24.130Z,64.66
2017-09-01T11:33:34.427Z,64.76
2017-09-01T11:34:44.714Z,65.14
2017-09-01T11:35:54.974Z,66
2017-09-01T11:37:05.240Z,66.39
2017-09-01T11:38:14.788Z,66.58
2017-09-01T11:39:25.085Z,66.87
2017-09-01T11:40:35.353Z,67.45
2017-09-01T11:41:45.630Z,67.54
2017-09-01T11:42:55.259Z,67.16
2017-09-01T11:44:05.805Z,66.87
2017-09-01T11:45:15.444Z,67.51
2017-09-01T11:46:25.420Z,67.35
2017-09-01T11:47:35.697Z,66.87
2017-09-01T11:48:45.990Z,66.49
2017-09-01T11:49:56.546Z,65.14
2017-09-01T11:51:06.227Z,66
2017-09-01T11:52:16.202Z,65.23
2017-09-01T11:53:26.497Z,64.66
2017-09-01T11:54:36.473Z,64.28
2017-09-01T11:55:46.677Z,64.66
2017-09-01T11:56:56.310Z,63.6
2017-09-01T11:58:06.596Z,63.02
2017-09-01T11:59:16.912Z,63.12
2017-09-01T12:00:27.178Z,62.45
2017-09-01T12:01:37.970Z,61.78
2017-09-01T12:02:48.261Z,62.64
2017-09-01T12:03:57.907Z,63.12
2017-09-01T12:05:08.174Z,63.79
2017-09-01T12:06:18.468Z,65.05
2017-09-01T12:07:28.993Z,65.4
2017-09-01T12:08:38.965Z,66.55
2017-09-01T12:09:48.940Z,66.93
2017-09-01T12:10:59.230Z,66.46
2017-09-01T12:12:09.533Z,66.93
2017-09-01T12:13:19.755Z,67.03
2017-09-01T12:14:29.712Z,67.03
2017-09-01T12:15:39.314Z,67.32
2017-09-01T12:16:49.265Z,67.03
2017-09-01T12:17:59.580Z,67.7
2017-09-01T12:19:10.116Z,68.28
2017-09-01T12:20:20.410Z,68.47
2017-09-01T12:21:30.676Z,68.28
2017-09-01T12:22:40.940Z,69.24
2017-09-01T12:23:51.235Z,67.61
2017-09-01T12:25:01.759Z,68.76
2017-09-01T12:26:12.054Z,69.72
2017-09-01T12:27:22.016Z,69.14
2017-09-01T12:28:31.661Z,69.14
2017-09-01T12:29:41.652Z,68.82
2017-09-01T12:30:52.242Z,69.81
2017-09-01T12:32:02.529Z,68.57
2017-09-01T12:33:12.823Z,69.68
2017-09-01T12:34:23.114Z,69.2
2017-09-01T12:35:33.392Z,69.87
2017-09-01T12:36:43.938Z,68.73
2017-09-01T12:37:54.199Z,68.15
2017-09-01T12:39:04.169Z,67.19
2017-09-01T12:40:14.125Z,66.52
2017-09-01T12:41:24.428Z,66.9
2017-09-01T12:42:34.958Z,67.29
2017-09-01T12:43:45.241Z,67.29
2017-09-01T12:44:55.514Z,67.19
2017-09-01T12:46:05.790Z,68.34
2017-09-01T12:47:15.738Z,68.66
2017-09-01T12:48:26.288Z,69.14
2017-09-01T12:49:36.260Z,69.68
2017-09-01T12:50:46.213Z,70.45
2017-09-01T12:51:56.190Z,70.45
2017-09-01T12:53:06.468Z,71.61
2017-09-01T12:54:17.023Z,71.61
2017-09-01T12:55:27.316Z,71.22
2017-09-01T12:56:37.663Z,71.61
2017-09-01T12:57:47.635Z,72.43
2017-09-01T12:58:57.922Z,72.43
2017-09-01T13:00:07.815Z,72.33
2017-09-01T13:01:17.794Z,72.43
2017-09-01T13:02:28.270Z,73.39
2017-09-01T13:03:38.533Z,72.53
2017-09-01T13:04:48.514Z,72.91
2017-09-01T13:05:59.049Z,72.53
2017-09-01T13:07:09.334Z,72.75
2017-09-01T13:08:19.278Z,72.47
2017-09-01T13:09:29.230Z,72.63
2017-09-01T13:10:39.517Z,72.18
2017-09-01T13:11:50.048Z,72.08
2017-09-01T13:13:00.021Z,72.18
2017-09-01T13:14:10.321Z,71.8
2017-09-01T13:15:20.308Z,71.95
2017-09-01T13:16:30.590Z,72.24
2017-09-01T13:17:41.101Z,72.91
2017-09-01T13:18:51.067Z,72.53
2017-09-01T13:20:00.728Z,72.63
2017-09-01T13:21:10.999Z,73
2017-09-01T13:22:21.276Z,73.3
2017-09-01T13:23:31.727Z,73.97
2017-09-01T13:24:41.683Z,74.06
2017-09-01T13:25:52.181Z,73.97
2017-09-01T13:27:02.484Z,73.77
2017-09-01T13:28:12.768Z,73.14
2017-09-01T13:29:23.311Z,72.37
2017-09-01T13:30:33.576Z,72.28
2017-09-01T13:31:43.516Z,71.8
2017-09-01T13:32:53.812Z,72.08
2017-09-01T13:34:03.775Z,71.89
2017-09-01T13:35:14.296Z,71.41
2017-09-01T13:36:23.938Z,71.7
2017-09-01T13:37:33.589Z,71.41
2017-09-01T13:38:43.544Z,71.12
2017-09-01T13:39:53.819Z,71.61
2017-09-01T13:41:04.334Z,71.7
2017-09-01T13:42:14.301Z,71.61
2017-09-01T13:43:24.587Z,72.18
2017-09-01T13:44:34.838Z,72.28
2017-09-01T13:45:45.121Z,72.75
2017-09-01T13:46:55.661Z,71.89
2017-09-01T13:48:05.311Z,71.12
2017-09-01T13:49:15.589Z,71.22
2017-09-01T13:50:25.873Z,71.31
2017-09-01T13:51:35.831Z,72.08
2017-09-01T13:52:46.377Z,71.61
2017-09-01T13:53:56.649Z,71.61
2017-09-01T13:55:06.919Z,71.31
2017-09-01T13:56:17.226Z,70.36
2017-09-01T13:57:27.509Z,70.36
2017-09-01T13:58:38.063Z,69.87
2017-09-01T13:59:48.353Z,69.97
2017-09-01T14:00:58.613Z,70.39
2017-09-01T14:02:08.887Z,69.34
2017-09-01T14:03:19.169Z,70.2
2017-09-01T14:04:29.086Z,70.39
2017-09-01T14:05:38.742Z,70.87
2017-09-01T14:06:49.032Z,70.87
2017-09-01T14:07:59.303Z,70.78
2017-09-01T14:09:09.594Z,70.78
2017-09-01T14:10:20.105Z,70.97
2017-09-01T14:11:30.397Z,71.25
2017-09-01T14:12:40.683Z,71.98
2017-09-01T14:13:50.333Z,71.98
2017-09-01T14:15:00.618Z,71.89
2017-09-01T14:16:11.146Z,71.03
2017-09-01T14:17:21.440Z,71.31
2017-09-01T14:18:31.737Z,70.55
2017-09-01T14:19:42.007Z,71.12
2017-09-01T14:20:51.967Z,71.22
2017-09-01T14:22:02.511Z,71.03
2017-09-01T14:23:12.472Z,70.07
2017-09-01T14:24:22.420Z,71.03
2017-09-01T14:25:32.424Z,70.64
2017-09-01T14:26:42.729Z,71.61
2017-09-01T14:27:53.277Z,71.12
2017-09-01T14:29:03.345Z,71.98
2017-09-01T14:30:13.296Z,71.8
2017-09-01T14:31:23.562Z,72.28
2017-09-01T14:32:33.205Z,71.98
2017-09-01T14:33:43.449Z,72.24
2017-09-01T14:34:52.763Z,72.14
2017-09-01T14:36:02.731Z,72.81
2017-09-01T14:37:13.015Z,73.3
2017-09-01T14:38:23.287Z,73.97
2017-09-01T14:39:33.815Z,73.87
2017-09-01T14:40:43.482Z,74.83
2017-09-01T14:41:53.753Z,73.97
2017-09-01T14:43:04.045Z,74.16
2017-09-01T14:44:14.372Z,73.58
2017-09-01T14:45:24.580Z,73
2017-09-01T14:46:34.890Z,72.81
2017-09-01T14:47:44.842Z,73.3
2017-09-01T14:48:54.799Z,73.87
2017-09-01T14:50:05.081Z,72.72
2017-09-01T14:51:15.621Z,73.3
2017-09-01T14:52:25.595Z,73.58
2017-09-01T14:53:35.882Z,73.58
2017-09-01T14:54:46.183Z,73.58
2017-09-01T14:55:56.449Z,73.77
2017-09-01T14:57:06.672Z,74.16
2017-09-01T14:58:16.335Z,73.87
2017-09-01T14:59:26.616Z,73.3
2017-09-01T15:00:36.903Z,74.02
2017-09-01T15:01:46.872Z,74.06
2017-09-01T15:02:57.394Z,74.12
2017-09-01T15:04:07.349Z,74.35
2017-09-01T15:05:17.636Z,74.02
2017-09-01T15:06:27.297Z,74.51
2017-09-01T15:07:37.581Z,74.89